sim
Sign-in with your pilot id or email,
or register
Callsign
Passwort

Schedule Details

Flight Number: OEO8885
Departure: Strasbourg Airport (LFST) at 12:00
Arrival: Munich Airport (EDDM) at 13:10

Weather Information
Getting current METAR information for LFST 271000Z AUTO 18014KT 9999 BKN035 OVC041 11/07 Q1002 NOSIG
Getting current METAR information for EDDM 270950Z 23009KT 200V290 9999 FEW040 13/03 Q1005 NOSIG

Schedule Frequency

Route Map